createdAt,value
2022-12-13T00:02:19.519Z,79.22
2022-12-13T00:04:51.342Z,79.33
2022-12-13T00:07:23.464Z,79.19
2022-12-13T00:09:55.257Z,79.01
2022-12-13T00:12:27.943Z,78.80
2022-12-13T00:15:00.241Z,78.66
2022-12-13T00:17:32.981Z,78.43
2022-12-13T00:20:05.102Z,78.39
2022-12-13T00:22:36.451Z,78.37
2022-12-13T00:25:09.799Z,78.36
2022-12-13T00:27:41.572Z,78.61
2022-12-13T00:30:14.366Z,78.68
2022-12-13T00:32:46.911Z,78.79
2022-12-13T00:35:18.879Z,78.83
2022-12-13T00:37:50.770Z,78.72
2022-12-13T00:40:22.660Z,78.45
2022-12-13T00:42:54.267Z,78.32
2022-12-13T00:45:25.909Z,78.30
2022-12-13T00:47:58.045Z,78.14
2022-12-13T00:50:30.072Z,78.04
2022-12-13T00:53:02.851Z,78.01
2022-12-13T00:55:34.780Z,78.01
2022-12-13T00:58:07.017Z,78.08
2022-12-13T01:00:38.884Z,78.04
2022-12-13T01:03:25.701Z,77.90
2022-12-13T01:06:14.873Z,77.94
2022-12-13T01:08:48.744Z,77.95
2022-12-13T01:11:20.706Z,77.94
2022-12-13T01:13:53.232Z,77.72
2022-12-13T01:16:26.240Z,77.59
2022-12-13T01:18:58.445Z,77.74
2022-12-13T01:21:30.926Z,77.70
2022-12-13T01:24:06.680Z,77.52
2022-12-13T01:26:38.841Z,77.38
2022-12-13T01:29:12.154Z,77.12
2022-12-13T01:31:44.358Z,76.98
2022-12-13T01:34:17.956Z,76.94
2022-12-13T01:36:50.757Z,77.19
2022-12-13T01:39:26.397Z,77.29
2022-12-13T01:42:00.294Z,77.37
2022-12-13T01:44:49.145Z,77.44
2022-12-13T01:47:24.497Z,77.26
2022-12-13T01:49:58.083Z,76.96
2022-12-13T01:52:34.201Z,76.90
2022-12-13T01:55:08.264Z,76.93
2022-12-13T01:57:45.352Z,76.98
2022-12-13T02:00:19.388Z,77.17
2022-12-13T02:02:51.525Z,77.14
2022-12-13T02:05:27.211Z,77.21
2022-12-13T02:08:01.736Z,77.09
2022-12-13T02:10:34.104Z,77.11
2022-12-13T02:13:06.464Z,77.03
2022-12-13T02:15:43.169Z,76.88
2022-12-13T02:18:23.292Z,76.91
2022-12-13T02:21:07.099Z,76.94
2022-12-13T02:23:52.497Z,77.09
2022-12-13T02:26:42.900Z,77.06
2022-12-13T02:29:30.717Z,77.05
2022-12-13T02:32:05.710Z,76.98
2022-12-13T02:34:40.877Z,76.79
2022-12-13T02:37:17.454Z,76.99
2022-12-13T02:39:53.450Z,77.03
2022-12-13T02:42:27.240Z,76.84
2022-12-13T02:45:02.170Z,76.90
2022-12-13T02:47:35.027Z,76.79
2022-12-13T02:50:09.868Z,76.77
2022-12-13T02:52:46.918Z,76.90
2022-12-13T02:55:19.135Z,76.86
2022-12-13T02:57:50.993Z,76.79
2022-12-13T03:00:24.169Z,76.65
2022-12-13T03:03:01.204Z,76.65
2022-12-13T03:05:56.241Z,76.79
2022-12-13T03:08:31.343Z,76.68
2022-12-13T03:11:07.137Z,76.80
2022-12-13T03:13:43.090Z,76.41
2022-12-13T03:16:22.928Z,76.14
2022-12-13T03:18:56.750Z,76.23
2022-12-13T03:21:28.918Z,76.25
2022-12-13T03:24:00.622Z,76.14
2022-12-13T03:26:33.200Z,76.20
2022-12-13T03:29:04.877Z,75.97
2022-12-13T03:31:36.746Z,76.10
2022-12-13T03:34:08.453Z,76.15
2022-12-13T03:36:40.203Z,76.22
2022-12-13T03:39:12.270Z,76.26
2022-12-13T03:41:44.161Z,76.28
2022-12-13T03:44:15.941Z,76.28
2022-12-13T03:46:47.590Z,76.23
2022-12-13T03:49:19.151Z,76.45
2022-12-13T03:51:50.802Z,76.38
2022-12-13T03:54:22.734Z,76.43
2022-12-13T03:56:55.487Z,76.62
2022-12-13T03:59:27.263Z,76.64
2022-12-13T04:01:59.060Z,76.56
2022-12-13T04:04:31.090Z,76.67
2022-12-13T04:07:02.847Z,76.65
2022-12-13T04:09:34.452Z,76.44
2022-12-13T04:12:23.633Z,76.49
2022-12-13T04:14:55.110Z,76.54
2022-12-13T04:17:27.367Z,76.50
2022-12-13T04:19:59.486Z,76.59
2022-12-13T04:22:31.402Z,76.68
2022-12-13T04:25:03.127Z,76.55
2022-12-13T04:27:34.964Z,76.64
2022-12-13T04:30:07.967Z,76.57
2022-12-13T04:32:39.996Z,76.63
2022-12-13T04:35:11.604Z,76.62
2022-12-13T04:37:43.558Z,76.64
2022-12-13T04:40:21.861Z,76.52
2022-12-13T04:42:55.029Z,76.25
2022-12-13T04:45:26.848Z,76.28
2022-12-13T04:47:58.450Z,76.32
2022-12-13T04:50:30.780Z,76.24
2022-12-13T04:53:03.029Z,76.11
2022-12-13T04:55:34.857Z,76.38
2022-12-13T04:58:06.587Z,76.52
2022-12-13T05:00:38.754Z,76.33
2022-12-13T05:03:10.408Z,76.23
2022-12-13T05:05:42.915Z,76.26
2022-12-13T05:08:14.732Z,76.11
2022-12-13T05:10:46.424Z,75.78
2022-12-13T05:13:18.602Z,75.82
2022-12-13T05:15:58.090Z,75.83
2022-12-13T05:18:30.317Z,75.81
2022-12-13T05:21:05.134Z,75.93
2022-12-13T05:23:37.803Z,76.08
2022-12-13T05:26:10.015Z,76.06
2022-12-13T05:28:42.108Z,76.17
2022-12-13T05:31:23.353Z,76.18
2022-12-13T05:34:01.533Z,75.95
2022-12-13T05:36:33.894Z,75.71
2022-12-13T05:39:05.786Z,75.74
2022-12-13T05:42:01.995Z,75.63
2022-12-13T05:44:35.352Z,75.46
2022-12-13T05:47:07.471Z,75.63
2022-12-13T05:49:39.663Z,75.61
2022-12-13T05:52:19.255Z,75.42
2022-12-13T05:54:50.930Z,75.30
2022-12-13T05:57:22.658Z,75.26
2022-12-13T05:59:54.718Z,75.27
2022-12-13T06:02:26.409Z,75.03
2022-12-13T06:04:58.953Z,75.21
2022-12-13T06:07:30.616Z,75.07
2022-12-13T06:10:10.449Z,74.80
2022-12-13T06:12:43.501Z,74.67
2022-12-13T06:15:21.625Z,74.54
2022-12-13T06:17:54.258Z,74.36
2022-12-13T06:20:25.760Z,74.45
2022-12-13T06:22:57.181Z,74.40
2022-12-13T06:25:30.677Z,74.33
2022-12-13T06:28:03.873Z,74.28
2022-12-13T06:30:36.181Z,74.25
2022-12-13T06:33:14.537Z,74.44
2022-12-13T06:35:57.579Z,74.61
2022-12-13T06:38:31.699Z,74.75
2022-12-13T06:41:11.469Z,74.69
2022-12-13T06:43:45.217Z,74.82
2022-12-13T06:46:17.176Z,75.00
2022-12-13T06:48:49.241Z,74.81
2022-12-13T06:51:22.399Z,74.91
2022-12-13T06:53:56.766Z,74.73
2022-12-13T06:56:33.247Z,74.48
2022-12-13T06:59:05.467Z,74.39
2022-12-13T07:01:37.904Z,74.43
2022-12-13T07:04:29.339Z,74.28
2022-12-13T07:07:03.096Z,74.36
2022-12-13T07:09:35.199Z,73.91
2022-12-13T07:12:07.622Z,73.55
2022-12-13T07:14:41.089Z,73.28
2022-12-13T07:17:13.463Z,73.19
2022-12-13T07:20:09.536Z,73.24
2022-12-13T07:22:47.859Z,73.19
2022-12-13T07:25:28.235Z,73.00
2022-12-13T07:28:03.094Z,72.66
2022-12-13T07:30:41.115Z,72.65
2022-12-13T07:33:22.416Z,72.73
2022-12-13T07:36:01.994Z,72.63
2022-12-13T07:38:33.752Z,72.72
2022-12-13T07:41:06.237Z,72.73
2022-12-13T07:43:38.366Z,72.83
2022-12-13T07:46:09.942Z,72.74
2022-12-13T07:48:41.939Z,72.38
2022-12-13T07:51:14.372Z,72.05
2022-12-13T07:53:46.720Z,72.17
2022-12-13T07:56:18.754Z,72.20
2022-12-13T07:58:50.400Z,71.96
2022-12-13T08:01:22.301Z,72.08
2022-12-13T08:03:54.671Z,72.31
2022-12-13T08:06:26.758Z,72.44
2022-12-13T08:08:59.652Z,72.43
2022-12-13T08:11:31.839Z,72.41
2022-12-13T08:14:03.830Z,72.15
2022-12-13T08:16:35.924Z,72.38
2022-12-13T08:19:07.865Z,72.44
2022-12-13T08:21:58.301Z,72.44
2022-12-13T08:24:33.080Z,72.51
2022-12-13T08:27:05.997Z,72.47
2022-12-13T08:29:38.393Z,72.29
2022-12-13T08:32:11.010Z,72.41
2022-12-13T08:34:44.439Z,72.70
2022-12-13T08:37:16.149Z,72.54
2022-12-13T08:39:48.039Z,72.30
2022-12-13T08:42:20.593Z,72.05
2022-12-13T08:44:53.229Z,71.75
2022-12-13T08:47:26.563Z,71.97
2022-12-13T08:50:03.222Z,71.99
2022-12-13T08:52:39.382Z,72.05
2022-12-13T08:55:13.881Z,71.82
2022-12-13T08:57:46.278Z,71.60
2022-12-13T09:00:19.709Z,71.38
2022-12-13T09:02:51.585Z,71.45
2022-12-13T09:05:33.921Z,71.36
2022-12-13T09:08:23.951Z,71.21
2022-12-13T09:11:01.256Z,70.78
2022-12-13T09:13:44.353Z,70.78
2022-12-13T09:16:23.392Z,71.09
2022-12-13T09:18:56.315Z,70.68
2022-12-13T09:21:30.956Z,70.36
2022-12-13T09:24:04.090Z,70.43
2022-12-13T09:26:38.174Z,70.39
2022-12-13T09:29:11.864Z,69.98
2022-12-13T09:31:47.119Z,70.01
2022-12-13T09:34:24.858Z,69.70
2022-12-13T09:37:01.671Z,69.74
2022-12-13T09:39:33.956Z,69.59
2022-12-13T09:42:10.518Z,69.24
2022-12-13T09:44:49.759Z,69.38
2022-12-13T09:47:35.196Z,69.26
2022-12-13T09:50:15.064Z,69.49
2022-12-13T09:52:47.992Z,69.50
2022-12-13T09:55:22.311Z,69.43
2022-12-13T09:57:55.074Z,69.31
2022-12-13T10:00:30.168Z,69.02
2022-12-13T10:03:02.600Z,68.96
2022-12-13T10:05:39.499Z,68.69
2022-12-13T10:08:15.205Z,69.01
2022-12-13T10:10:47.834Z,69.63
2022-12-13T10:13:21.414Z,69.85
2022-12-13T10:15:55.791Z,69.92
2022-12-13T10:18:34.100Z,69.90
2022-12-13T10:21:09.354Z,70.20
2022-12-13T10:24:15.164Z,71.13
2022-12-13T10:26:37.305Z,71.38
2022-12-13T10:29:10.204Z,71.42
2022-12-13T10:31:43.881Z,71.40
2022-12-13T10:34:22.311Z,71.82
2022-12-13T10:36:54.722Z,72.20
2022-12-13T10:39:42.042Z,72.25
2022-12-13T10:42:22.766Z,72.13
2022-12-13T10:48:21.771Z,73.13
2022-12-13T10:51:01.290Z,73.10
2022-12-13T10:53:32.143Z,73.01
2022-12-13T10:56:02.644Z,72.38
2022-12-13T10:58:39.027Z,72.47
2022-12-13T11:01:22.347Z,72.63
2022-12-13T11:04:02.306Z,72.69
2022-12-13T11:06:43.631Z,72.70
2022-12-13T11:09:23.285Z,72.90
2022-12-13T11:11:58.316Z,73.25
2022-12-13T11:14:32.293Z,73.50
2022-12-13T11:17:08.427Z,73.77
2022-12-13T11:19:39.938Z,73.64
2022-12-13T11:22:09.740Z,73.23
2022-12-13T11:24:41.785Z,72.93
2022-12-13T11:27:29.618Z,73.06
2022-12-13T11:30:09.660Z,73.22
2022-12-13T11:32:48.490Z,73.73
2022-12-13T11:35:21.981Z,73.75
2022-12-13T11:37:55.005Z,73.60
2022-12-13T11:40:25.660Z,73.33
2022-12-13T11:42:58.707Z,73.10
2022-12-13T11:45:31.387Z,72.94
2022-12-13T11:48:04.987Z,73.15
2022-12-13T11:50:36.562Z,73.22
2022-12-13T11:53:21.277Z,72.89
2022-12-13T11:55:53.051Z,73.42
2022-12-13T11:59:00.723Z,73.44
2022-12-13T12:01:18.061Z,72.77
2022-12-13T12:03:49.870Z,71.84
2022-12-13T12:06:21.937Z,71.47
2022-12-13T12:08:56.339Z,71.49
2022-12-13T12:11:28.818Z,72.12
2022-12-13T12:14:01.578Z,72.21
2022-12-13T12:16:33.540Z,71.67
2022-12-13T12:19:08.810Z,71.94
2022-12-13T12:22:12.128Z,72.28
2022-12-13T12:24:33.464Z,72.74
2022-12-13T12:27:12.227Z,70.56
2022-12-13T12:29:52.673Z,70.21
2022-12-13T12:32:25.896Z,70.94
2022-12-13T12:35:02.050Z,71.40
2022-12-13T12:37:35.102Z,70.81
2022-12-13T12:40:22.875Z,69.90
2022-12-13T12:43:15.269Z,69.51
2022-12-13T12:45:56.773Z,69.47
2022-12-13T12:49:01.233Z,69.44
2022-12-13T12:51:30.538Z,69.05
2022-12-13T12:54:10.478Z,68.65
2022-12-13T12:56:43.179Z,68.57
2022-12-13T12:59:18.095Z,68.22
2022-12-13T13:01:52.243Z,68.19
2022-12-13T13:04:26.273Z,68.83
2022-12-13T13:07:01.396Z,69.09
2022-12-13T13:09:33.814Z,69.15
2022-12-13T13:12:29.306Z,69.25
2022-12-13T13:14:56.992Z,68.94
2022-12-13T13:17:40.715Z,68.35
2022-12-13T13:20:18.110Z,68.27
2022-12-13T13:23:03.887Z,68.41
2022-12-13T13:26:00.281Z,68.42
2022-12-13T13:28:27.817Z,68.40
2022-12-13T13:31:03.249Z,68.45
2022-12-13T13:33:45.056Z,68.74
2022-12-13T13:36:34.893Z,68.88
2022-12-13T13:39:04.216Z,68.87
2022-12-13T13:41:55.237Z,68.74
2022-12-13T13:44:55.479Z,68.95
2022-12-13T13:47:36.084Z,68.96
2022-12-13T13:50:19.575Z,68.87
2022-12-13T13:52:58.616Z,68.78
2022-12-13T13:55:42.768Z,68.59
2022-12-13T13:58:44.688Z,68.32
2022-12-13T14:01:27.794Z,68.35
2022-12-13T14:04:15.234Z,68.47
2022-12-13T14:07:02.616Z,68.62
2022-12-13T14:09:48.748Z,68.65
2022-12-13T14:12:33.344Z,68.79
2022-12-13T14:15:25.195Z,68.93
2022-12-13T14:18:11.176Z,69.03
2022-12-13T14:20:48.847Z,69.13
2022-12-13T14:23:22.477Z,69.02
2022-12-13T14:26:10.667Z,69.00
2022-12-13T14:28:47.904Z,68.99
2022-12-13T14:31:22.325Z,69.18
2022-12-13T14:33:53.602Z,69.16
2022-12-13T14:36:28.709Z,69.16
2022-12-13T14:39:02.892Z,69.14
2022-12-13T14:41:32.999Z,69.20
2022-12-13T14:44:21.235Z,69.13
2022-12-13T14:46:54.752Z,69.06
2022-12-13T14:49:25.180Z,69.01
2022-12-13T14:52:00.618Z,69.17
2022-12-13T14:54:32.592Z,69.27
2022-12-13T14:57:03.243Z,69.42
2022-12-13T14:59:33.608Z,69.44
2022-12-13T15:02:05.181Z,69.31
2022-12-13T15:04:35.402Z,69.45
2022-12-13T15:07:07.478Z,69.54
2022-12-13T15:09:38.085Z,69.50
2022-12-13T15:12:23.960Z,69.62
2022-12-13T15:14:57.395Z,69.50
2022-12-13T15:17:30.911Z,69.57
2022-12-13T15:20:26.133Z,69.65
2022-12-13T15:23:00.755Z,69.52
2022-12-13T15:25:37.989Z,69.58
2022-12-13T15:28:08.374Z,69.69
2022-12-13T15:30:38.641Z,69.81
2022-12-13T15:33:08.270Z,69.83
2022-12-13T15:35:37.776Z,69.85
2022-12-13T15:38:11.529Z,69.97
2022-12-13T15:40:44.325Z,70.04
2022-12-13T15:43:16.293Z,70.15
2022-12-13T15:45:46.789Z,70.14
2022-12-13T15:48:22.996Z,70.11
2022-12-13T15:51:04.281Z,70.07
2022-12-13T15:53:34.495Z,69.99
2022-12-13T15:56:09.466Z,70.08
2022-12-13T15:58:39.701Z,70.15
2022-12-13T16:01:22.783Z,70.10
2022-12-13T16:03:52.117Z,70.19
2022-12-13T16:06:22.836Z,70.32
2022-12-13T16:08:52.637Z,70.18
2022-12-13T16:11:33.738Z,70.20
2022-12-13T16:14:26.281Z,70.38
2022-12-13T16:16:56.095Z,70.44
2022-12-13T16:19:25.409Z,70.34
2022-12-13T16:21:54.598Z,70.19
2022-12-13T16:24:23.413Z,70.21
2022-12-13T16:26:52.828Z,70.28
2022-12-13T16:29:22.427Z,70.33
2022-12-13T16:31:51.787Z,70.21
2022-12-13T16:34:21.160Z,70.19
2022-12-13T16:36:56.586Z,70.16
2022-12-13T16:39:26.827Z,70.20
2022-12-13T16:41:56.646Z,70.28
2022-12-13T16:44:29.764Z,70.25
2022-12-13T16:47:11.779Z,70.10
2022-12-13T16:49:49.697Z,70.00
2022-12-13T16:52:20.308Z,69.96
2022-12-13T16:54:50.872Z,69.95
2022-12-13T16:57:22.965Z,70.15
2022-12-13T16:59:54.809Z,70.05
2022-12-13T17:02:25.787Z,70.16
2022-12-13T17:04:59.829Z,70.27
2022-12-13T17:07:30.192Z,70.29
2022-12-13T17:10:01.672Z,70.32
2022-12-13T17:12:34.774Z,70.26
2022-12-13T17:15:06.466Z,70.15
2022-12-13T17:17:38.660Z,70.05
2022-12-13T17:20:13.037Z,69.85
2022-12-13T17:22:43.997Z,69.89
2022-12-13T17:25:15.024Z,69.72
2022-12-13T17:27:46.372Z,69.71
2022-12-13T17:30:18.123Z,69.69
2022-12-13T17:32:51.051Z,69.74
2022-12-13T17:35:27.755Z,69.69
2022-12-13T17:37:59.617Z,69.72
2022-12-13T17:40:29.042Z,69.79
2022-12-13T17:42:58.886Z,69.77
2022-12-13T17:45:28.786Z,69.88
2022-12-13T17:48:01.810Z,69.93
2022-12-13T17:50:32.899Z,70.20
2022-12-13T17:53:06.141Z,70.41
2022-12-13T17:55:35.917Z,70.47
2022-12-13T17:58:05.646Z,70.52
2022-12-13T18:00:37.082Z,70.69
2022-12-13T18:03:07.122Z,70.78
2022-12-13T18:05:37.657Z,70.70
2022-12-13T18:08:07.147Z,70.71
2022-12-13T18:10:37.330Z,70.89
2022-12-13T18:13:09.010Z,70.86
2022-12-13T18:15:39.866Z,70.81
2022-12-13T18:18:16.104Z,70.66
2022-12-13T18:20:47.826Z,70.79
2022-12-13T18:23:32.146Z,70.62
2022-12-13T18:26:06.069Z,70.70
2022-12-13T18:28:40.746Z,70.66
2022-12-13T18:31:14.895Z,70.67
2022-12-13T18:33:48.035Z,70.77
2022-12-13T18:36:20.347Z,70.96
2022-12-13T18:38:51.909Z,71.03
2022-12-13T18:41:27.773Z,71.05
2022-12-13T18:43:59.941Z,71.12
2022-12-13T18:46:32.714Z,71.23
2022-12-13T18:49:07.137Z,71.10
2022-12-13T18:51:40.076Z,71.08
2022-12-13T18:54:12.369Z,71.19
2022-12-13T18:56:45.595Z,71.26
2022-12-13T18:59:20.017Z,71.17
2022-12-13T19:01:50.816Z,70.85
2022-12-13T19:04:27.109Z,70.70
2022-12-13T19:06:58.546Z,70.47
2022-12-13T19:09:30.814Z,70.51
2022-12-13T19:12:05.763Z,70.52
2022-12-13T19:14:37.587Z,70.57
2022-12-13T19:17:09.726Z,70.58
2022-12-13T19:19:42.788Z,70.71
2022-12-13T19:22:24.474Z,70.74
2022-12-13T19:24:55.816Z,70.82
2022-12-13T19:27:31.770Z,70.81
2022-12-13T19:30:05.553Z,70.80
2022-12-13T19:32:37.735Z,70.75
2022-12-13T19:35:14.905Z,70.70
2022-12-13T19:37:48.199Z,70.78
2022-12-13T19:40:34.619Z,70.89
2022-12-13T19:43:10.299Z,70.88
2022-12-13T19:45:49.115Z,70.74
2022-12-13T19:48:22.943Z,70.72
2022-12-13T19:50:58.707Z,70.73
2022-12-13T19:53:31.454Z,70.88
2022-12-13T19:56:11.775Z,70.91
2022-12-13T19:58:49.301Z,70.89
2022-12-13T20:01:22.917Z,70.82
2022-12-13T20:03:55.308Z,70.92
2022-12-13T20:06:28.931Z,70.98
2022-12-13T20:09:00.691Z,70.99
2022-12-13T20:11:39.121Z,70.94
2022-12-13T20:14:15.707Z,71.14
2022-12-13T20:16:51.748Z,71.15
2022-12-13T20:19:27.419Z,71.25
2022-12-13T20:21:59.895Z,71.34
2022-12-13T20:24:37.597Z,71.39
2022-12-13T20:27:09.584Z,71.58
2022-12-13T20:29:43.188Z,71.67
2022-12-13T20:32:22.061Z,71.80
2022-12-13T20:34:55.216Z,71.75
2022-12-13T20:37:29.002Z,71.84
2022-12-13T20:40:03.218Z,71.87
2022-12-13T20:42:36.630Z,71.95
2022-12-13T20:45:10.832Z,71.87
2022-12-13T20:47:44.713Z,71.67
2022-12-13T20:50:18.024Z,71.77
2022-12-13T20:52:50.893Z,71.74
2022-12-13T20:55:22.893Z,71.64
2022-12-13T20:57:54.031Z,71.71
2022-12-13T21:00:26.920Z,71.70
2022-12-13T21:02:58.783Z,71.77
2022-12-13T21:05:29.610Z,71.70
2022-12-13T21:08:21.657Z,71.62
2022-12-13T21:10:53.302Z,71.75
2022-12-13T21:13:25.518Z,71.83
2022-12-13T21:15:56.714Z,71.82
2022-12-13T21:18:30.198Z,71.95
2022-12-13T21:21:00.866Z,72.06
2022-12-13T21:23:31.437Z,72.15
2022-12-13T21:26:02.635Z,72.12
2022-12-13T21:28:33.378Z,72.17
2022-12-13T21:31:04.361Z,72.22
2022-12-13T21:33:33.966Z,72.23
2022-12-13T21:36:13.421Z,72.32
2022-12-13T21:38:43.620Z,72.41
2022-12-13T21:41:13.124Z,72.40
2022-12-13T21:43:42.333Z,72.38
2022-12-13T21:46:18.253Z,72.40
2022-12-13T21:48:48.089Z,72.40
2022-12-13T21:51:17.985Z,72.39
2022-12-13T21:53:48.187Z,72.33
2022-12-13T21:56:35.694Z,72.39
2022-12-13T21:59:19.122Z,72.45
2022-12-13T22:02:07.971Z,72.52
2022-12-13T22:04:38.039Z,72.64
2022-12-13T22:07:08.308Z,72.70
2022-12-13T22:09:37.899Z,72.74
2022-12-13T22:12:10.857Z,72.61
2022-12-13T22:14:40.108Z,72.78
2022-12-13T22:17:09.577Z,72.78
2022-12-13T22:19:38.804Z,72.80
2022-12-13T22:22:08.320Z,72.73
2022-12-13T22:24:37.544Z,72.54
2022-12-13T22:27:07.067Z,72.55
2022-12-13T22:29:36.710Z,72.49
2022-12-13T22:32:06.575Z,72.42
2022-12-13T22:34:36.135Z,72.36
2022-12-13T22:37:05.615Z,72.21
2022-12-13T22:39:34.824Z,72.12
2022-12-13T22:42:04.296Z,72.20
2022-12-13T22:44:33.555Z,72.24
2022-12-13T22:47:02.766Z,72.21
2022-12-13T22:49:31.743Z,72.20
2022-12-13T22:52:01.018Z,72.22
2022-12-13T22:54:30.607Z,72.32
2022-12-13T22:56:59.695Z,72.46
2022-12-13T22:59:29.288Z,72.45
2022-12-13T23:02:02.633Z,72.49
2022-12-13T23:04:35.013Z,72.60
2022-12-13T23:07:04.340Z,72.59
2022-12-13T23:09:33.699Z,72.65
2022-12-13T23:12:21.777Z,72.80
2022-12-13T23:14:50.956Z,72.92
2022-12-13T23:17:20.192Z,72.91
2022-12-13T23:19:53.619Z,73.04
2022-12-13T23:22:24.710Z,73.11
2022-12-13T23:25:01.744Z,73.18
2022-12-13T23:27:31.074Z,73.17
2022-12-13T23:30:00.391Z,73.36
2022-12-13T23:32:29.655Z,73.39
2022-12-13T23:34:58.623Z,73.46
2022-12-13T23:37:28.021Z,73.39
2022-12-13T23:39:57.567Z,73.27
2022-12-13T23:42:28.743Z,73.18
2022-12-13T23:44:59.063Z,73.21
2022-12-13T23:47:28.574Z,73.09
2022-12-13T23:49:58.099Z,72.90
2022-12-13T23:52:27.454Z,72.71
2022-12-13T23:54:57.074Z,72.71
2022-12-13T23:57:26.644Z,72.64
2022-12-13T23:59:56.595Z,72.58
